Time;durP1;ratioP1;P1;durP2;ratioP2;P2;SDS_P1;SDS_P2;PMS_P1;PMS_P2;Temp;Humidity;BMP_temperature;BMP_pressure;BME280_temperature;BME280_humidity;BME280_pressure;Samples;Min_cycle;Max_cycle;Signal;HPM_P1;HPM_P2
2023/12/29 00:02:11;;;;;;;;;;;;;;;;;;5085507;28;19948;-62
2023/12/29 00:04:36;;;;;;;;;;;;;;;;;;5090895;28;19973;-63
2023/12/29 00:07:02;;;;;;;;;;;;;;;;;;5091061;28;19912;-62
2023/12/29 00:09:28;;;;;;;;;;;;;;;;;;5089363;28;20332;-62
2023/12/29 00:11:54;;;;;;;;;;;;;;;;;;5090578;28;19962;-61
2023/12/29 00:14:20;;;;;;;;;;;;;;;;;;5091772;28;19973;-61
2023/12/29 00:16:46;;;;;;;;;;;;;;;;;;5091338;28;19997;-61
2023/12/29 00:19:12;;;;;;;;;;;;;;;;;;5090014;28;19912;-61
2023/12/29 00:21:38;;;;;;;;;;;;;;;;;;5091854;28;20356;-61
2023/12/29 00:24:04;;;;;;;;;;;;;;;;;;5092306;28;19916;-61
2023/12/29 00:26:30;;;;;;;;;;;;;;;;;;5091781;28;19951;-61
2023/12/29 00:28:55;;;;;;;;;;;;;;;;;;5089959;28;20352;-61
2023/12/29 00:31:21;;;;;;;;;;;;;;;;;;5083292;28;19916;-61
2023/12/29 00:33:48;;;;;;;;;;;;;;;;;;5087376;28;19915;-61
2023/12/29 00:36:14;;;;;;;;;;;;;;;;;;5091242;28;19916;-60
2023/12/29 00:38:40;;;;;;;;;;;;;;;;;;5091529;28;19955;-61
2023/12/29 00:41:06;;;;;;;;;;;;;;;;;;5091634;28;20458;-61
2023/12/29 00:43:32;;;;;;;;;;;;;;;;;;5090275;28;19912;-61
2023/12/29 00:45:58;;;;;;;;;;;;;;;;;;5083942;28;20007;-63
2023/12/29 00:48:24;;;;;;;;;;;;;;;;;;5091035;28;19916;-61
2023/12/29 00:50:50;;;;;;;;;;;;;;;;;;5091349;28;19998;-60
2023/12/29 00:53:16;;;;;;;;;;;;;;;;;;5090643;28;19916;-61
2023/12/29 00:55:42;;;;;;;;;;;;;;;;;;5091022;28;19951;-61
2023/12/29 00:58:08;;;;;;;;;;;;;;;;;;5090695;28;20049;-60
2023/12/29 01:00:34;;;;;;;;;;;;;;;;;;5089105;28;19938;-61
2023/12/29 01:02:59;;;;;;;;;;;;;;;;;;5091018;28;19920;-60
2023/12/29 01:05:27;;;;;;;;;;;;;;;;;;5090892;28;20398;-60
2023/12/29 01:07:53;;;;;;;;;;;;;;;;;;5091751;28;19969;-61
2023/12/29 01:10:19;;;;;;;;;;;;;;;;;;5094500;28;19916;-60
2023/12/29 01:12:45;;;;;;;;;;;;;;;;;;5095752;28;20348;-60
2023/12/29 01:15:11;;;;;;;;;;;;;;;;;;5093694;28;19919;-61
2023/12/29 01:17:37;;;;;;;;;;;;;;;;;;5095126;28;19916;-62
2023/12/29 01:20:04;;;;;;;;;;;;;;;;;;5083314;28;19913;-61
2023/12/29 01:22:30;;;;;;;;;;;;;;;;;;5094746;28;19912;-62
2023/12/29 01:24:56;;;;;;;;;;;;;;;;;;5085337;28;19920;-62
2023/12/29 01:27:22;;;;;;;;;;;;;;;;;;5085976;28;19928;-62
2023/12/29 01:29:47;;;;;;;;;;;;;;;;;;5093713;28;19931;-62
2023/12/29 01:32:13;;;;;;;;;;;;;;;;;;5086516;28;20004;-62
2023/12/29 01:34:39;;;;;;;;;;;;;;;;;;5094294;28;19912;-62
2023/12/29 01:37:05;;;;;;;;;;;;;;;;;;5084707;28;19995;-62
2023/12/29 01:39:31;;;;;;;;;;;;;;;;;;5079266;28;20349;-62
2023/12/29 01:41:57;;;;;;;;;;;;;;;;;;5095045;28;19919;-62
2023/12/29 01:44:23;;;;;;;;;;;;;;;;;;5088893;28;19951;-62
2023/12/29 01:46:49;;;;;;;;;;;;;;;;;;5087625;28;20280;-62
2023/12/29 01:49:15;;;;;;;;;;;;;;;;;;5088222;28;20007;-62
2023/12/29 01:51:41;;;;;;;;;;;;;;;;;;5091570;28;19916;-62
2023/12/29 01:54:07;;;;;;;;;;;;;;;;;;5083093;28;19923;-62
2023/12/29 01:56:32;;;;;;;;;;;;;;;;;;5079646;28;19951;-62
2023/12/29 01:58:58;;;;;;;;;;;;;;;;;;5079062;28;20444;-62
2023/12/29 02:01:24;;;;;;;;;;;;;;;;;;5088879;28;20057;-65
2023/12/29 02:03:50;;;;;;;;;;;;;;;;;;5094333;28;20290;-66
2023/12/29 02:06:16;;;;;;;;;;;;;;;;;;5094430;28;19912;-66
2023/12/29 02:08:42;;;;;;;;;;;;;;;;;;5088434;28;19912;-65
2023/12/29 02:11:08;;;;;;;;;;;;;;;;;;5092539;28;20010;-66
2023/12/29 02:13:34;;;;;;;;;;;;;;;;;;5094414;28;19959;-65
2023/12/29 02:16:00;;;;;;;;;;;;;;;;;;5090813;28;19986;-64
2023/12/29 02:18:25;;;;;;;;;;;;;;;;;;5093863;28;20355;-65
2023/12/29 02:20:51;;;;;;;;;;;;;;;;;;5092850;28;19959;-66
2023/12/29 02:23:17;;;;;;;;;;;;;;;;;;5093777;28;19957;-65
2023/12/29 02:25:43;;;;;;;;;;;;;;;;;;5094231;28;19916;-66
2023/12/29 02:28:09;;;;;;;;;;;;;;;;;;5094188;28;19920;-67
2023/12/29 02:30:35;;;;;;;;;;;;;;;;;;5089261;28;19912;-66
2023/12/29 02:33:01;;;;;;;;;;;;;;;;;;5094461;28;19955;-65
2023/12/29 02:35:27;;;;;;;;;;;;;;;;;;5093992;28;19923;-66
2023/12/29 02:37:53;;;;;;;;;;;;;;;;;;5092726;28;19916;-65
2023/12/29 02:40:19;;;;;;;;;;;;;;;;;;5076825;28;19923;-65
2023/12/29 02:42:45;;;;;;;;;;;;;;;;;;5094015;28;19915;-66
2023/12/29 02:45:10;;;;;;;;;;;;;;;;;;5093752;28;19919;-65
2023/12/29 02:47:36;;;;;;;;;;;;;;;;;;5092908;28;19919;-65
2023/12/29 02:50:02;;;;;;;;;;;;;;;;;;5093197;28;19912;-65
2023/12/29 02:52:28;;;;;;;;;;;;;;;;;;5092794;28;19956;-65
2023/12/29 02:54:54;;;;;;;;;;;;;;;;;;5091463;28;20341;-65
2023/12/29 02:57:20;;;;;;;;;;;;;;;;;;5093448;28;19976;-65
2023/12/29 02:59:46;;;;;;;;;;;;;;;;;;5092821;28;19982;-65
2023/12/29 03:02:12;;;;;;;;;;;;;;;;;;5083334;28;19912;-65
2023/12/29 03:04:38;;;;;;;;;;;;;;;;;;5093853;28;19981;-66
2023/12/29 03:07:04;;;;;;;;;;;;;;;;;;5093135;28;19912;-65
2023/12/29 03:09:29;;;;;;;;;;;;;;;;;;5092391;28;19919;-66
2023/12/29 03:11:55;;;;;;;;;;;;;;;;;;5084876;28;20489;-62
2023/12/29 03:14:21;;;;;;;;;;;;;;;;;;5092840;28;19912;-63
2023/12/29 03:16:47;;;;;;;;;;;;;;;;;;5084245;28;19912;-62
2023/12/29 03:19:13;;;;;;;;;;;;;;;;;;5093083;28;19912;-63
2023/12/29 03:21:39;;;;;;;;;;;;;;;;;;5092885;28;20070;-62
2023/12/29 03:24:05;;;;;;;;;;;;;;;;;;5093187;28;19916;-62
2023/12/29 03:26:31;;;;;;;;;;;;;;;;;;5091773;28;19916;-62
2023/12/29 03:28:57;;;;;;;;;;;;;;;;;;5092901;28;20029;-62
2023/12/29 03:31:22;;;;;;;;;;;;;;;;;;5090733;28;19912;-62
2023/12/29 03:33:48;;;;;;;;;;;;;;;;;;5090762;28;20367;-62
2023/12/29 03:36:14;;;;;;;;;;;;;;;;;;5092903;28;19969;-62
2023/12/29 03:38:40;;;;;;;;;;;;;;;;;;5091510;28;20354;-63
2023/12/29 03:41:06;;;;;;;;;;;;;;;;;;5091141;28;19965;-62
2023/12/29 03:43:32;;;;;;;;;;;;;;;;;;5092089;28;19955;-62
2023/12/29 03:45:58;;;;;;;;;;;;;;;;;;5079997;28;20279;-62
2023/12/29 03:48:24;;;;;;;;;;;;;;;;;;5092329;28;19919;-62
2023/12/29 03:50:50;;;;;;;;;;;;;;;;;;5091269;28;19956;-63
2023/12/29 03:53:16;;;;;;;;;;;;;;;;;;5092354;28;20026;-62
2023/12/29 03:55:42;;;;;;;;;;;;;;;;;;5091192;28;19956;-62
2023/12/29 03:58:08;;;;;;;;;;;;;;;;;;5082975;28;19912;-62
2023/12/29 04:00:34;;;;;;;;;;;;;;;;;;5087056;28;19970;-62
2023/12/29 04:03:00;;;;;;;;;;;;;;;;;;5091452;28;19916;-62
2023/12/29 04:05:26;;;;;;;;;;;;;;;;;;5089024;28;19912;-63
2023/12/29 04:07:52;;;;;;;;;;;;;;;;;;5084381;28;20326;-62
2023/12/29 04:10:18;;;;;;;;;;;;;;;;;;5076776;28;19912;-62
2023/12/29 04:12:44;;;;;;;;;;;;;;;;;;5091970;28;20016;-61
2023/12/29 04:15:10;;;;;;;;;;;;;;;;;;5092122;28;19986;-62
2023/12/29 04:17:36;;;;;;;;;;;;;;;;;;5090106;28;19952;-62
2023/12/29 04:20:02;;;;;;;;;;;;;;;;;;5080478;28;19966;-62
2023/12/29 04:22:28;;;;;;;;;;;;;;;;;;5084889;28;20016;-66
2023/12/29 04:24:54;;;;;;;;;;;;;;;;;;5091230;28;19966;-65
2023/12/29 04:27:20;;;;;;;;;;;;;;;;;;5092112;28;20376;-65
2023/12/29 04:29:46;;;;;;;;;;;;;;;;;;5087416;28;19954;-66
2023/12/29 04:32:11;;;;;;;;;;;;;;;;;;5088411;28;19920;-65
2023/12/29 04:34:37;;;;;;;;;;;;;;;;;;5089902;28;20461;-65
2023/12/29 04:37:03;;;;;;;;;;;;;;;;;;5089160;28;20006;-66
2023/12/29 04:39:29;;;;;;;;;;;;;;;;;;5083973;28;19919;-65
2023/12/29 04:41:55;;;;;;;;;;;;;;;;;;5091059;28;19919;-65
2023/12/29 04:44:21;;;;;;;;;;;;;;;;;;5093578;28;19948;-64
2023/12/29 04:46:47;;;;;;;;;;;;;;;;;;5094035;28;19999;-64
2023/12/29 04:49:13;;;;;;;;;;;;;;;;;;5093155;28;20301;-63
2023/12/29 04:51:39;;;;;;;;;;;;;;;;;;5092136;28;19943;-64
2023/12/29 04:54:05;;;;;;;;;;;;;;;;;;5094950;28;20019;-65
2023/12/29 04:56:31;;;;;;;;;;;;;;;;;;5083560;28;20354;-65
2023/12/29 04:58:57;;;;;;;;;;;;;;;;;;5080557;28;19912;-65
2023/12/29 05:01:23;;;;;;;;;;;;;;;;;;5087853;28;19922;-65
2023/12/29 05:03:49;;;;;;;;;;;;;;;;;;5087427;28;20015;-64
2023/12/29 05:06:15;;;;;;;;;;;;;;;;;;5090020;28;19923;-65
2023/12/29 05:08:41;;;;;;;;;;;;;;;;;;5095034;28;19908;-65
2023/12/29 05:11:06;;;;;;;;;;;;;;;;;;5090764;28;19916;-65
2023/12/29 05:13:33;;;;;;;;;;;;;;;;;;5093506;28;20019;-65
2023/12/29 05:15:59;;;;;;;;;;;;;;;;;;5091163;28;19919;-64
2023/12/29 05:18:26;;;;;;;;;;;;;;;;;;5094454;28;19920;-65
2023/12/29 05:20:52;;;;;;;;;;;;;;;;;;5087648;28;19917;-64
2023/12/29 05:23:18;;;;;;;;;;;;;;;;;;5094255;28;19955;-65
2023/12/29 05:25:44;;;;;;;;;;;;;;;;;;5088308;28;20439;-65
2023/12/29 05:28:10;;;;;;;;;;;;;;;;;;5090937;28;19945;-65
2023/12/29 05:30:36;;;;;;;;;;;;;;;;;;5094436;28;19912;-60
2023/12/29 05:33:01;;;;;;;;;;;;;;;;;;5093299;28;20011;-65
2023/12/29 05:35:27;;;;;;;;;;;;;;;;;;5094105;28;19995;-65
2023/12/29 05:37:53;;;;;;;;;;;;;;;;;;5094088;28;20286;-65
2023/12/29 05:40:19;;;;;;;;;;;;;;;;;;5092631;28;19943;-65
2023/12/29 05:42:45;;;;;;;;;;;;;;;;;;5091326;28;19959;-65
2023/12/29 05:45:11;;;;;;;;;;;;;;;;;;5093640;28;20027;-65
2023/12/29 05:47:37;;;;;;;;;;;;;;;;;;5092315;28;19944;-65
2023/12/29 05:50:03;;;;;;;;;;;;;;;;;;5090698;28;20295;-64
2023/12/29 05:52:29;;;;;;;;;;;;;;;;;;5092611;28;19985;-64
2023/12/29 05:54:55;;;;;;;;;;;;;;;;;;5094489;28;19920;-64
2023/12/29 05:57:21;;;;;;;;;;;;;;;;;;5093801;28;19951;-64
2023/12/29 05:59:46;;;;;;;;;;;;;;;;;;5093029;28;19923;-65
2023/12/29 06:02:12;;;;;;;;;;;;;;;;;;5089708;28;20347;-65
2023/12/29 06:04:38;;;;;;;;;;;;;;;;;;5094381;28;19908;-63
2023/12/29 06:07:04;;;;;;;;;;;;;;;;;;5093792;28;19916;-64
2023/12/29 06:09:30;;;;;;;;;;;;;;;;;;5084598;28;20375;-65
2023/12/29 06:11:56;;;;;;;;;;;;;;;;;;5093011;28;20372;-65
2023/12/29 06:14:22;;;;;;;;;;;;;;;;;;5093720;28;19962;-65
2023/12/29 06:16:48;;;;;;;;;;;;;;;;;;5081597;28;19952;-65
2023/12/29 06:19:14;;;;;;;;;;;;;;;;;;5093168;28;19916;-65
2023/12/29 06:21:40;;;;;;;;;;;;;;;;;;5092285;28;19959;-64
2023/12/29 06:24:06;;;;;;;;;;;;;;;;;;5082907;28;19912;-65
2023/12/29 06:26:32;;;;;;;;;;;;;;;;;;5090418;28;19957;-65
2023/12/29 06:28:57;;;;;;;;;;;;;;;;;;5092101;28;20428;-65
2023/12/29 06:31:24;;;;;;;;;;;;;;;;;;5091292;28;19948;-64
2023/12/29 06:33:50;;;;;;;;;;;;;;;;;;5080591;28;20234;-65
2023/12/29 06:36:16;;;;;;;;;;;;;;;;;;5088706;28;19999;-65
2023/12/29 06:38:45;;;;;;;;;;;;;;;;;;5083622;28;19934;-65
2023/12/29 06:41:12;;;;;;;;;;;;;;;;;;5093091;28;20049;-62
2023/12/29 06:43:38;;;;;;;;;;;;;;;;;;5093353;28;20450;-61
2023/12/29 06:46:04;;;;;;;;;;;;;;;;;;5087645;28;19912;-62
2023/12/29 06:48:30;;;;;;;;;;;;;;;;;;5080599;28;20000;-61
2023/12/29 06:50:56;;;;;;;;;;;;;;;;;;5084624;28;19912;-61
2023/12/29 06:53:22;;;;;;;;;;;;;;;;;;5091855;28;19920;-62
2023/12/29 06:55:48;;;;;;;;;;;;;;;;;;5093876;28;20417;-61
2023/12/29 06:58:14;;;;;;;;;;;;;;;;;;5087206;28;19920;-62
2023/12/29 07:00:40;;;;;;;;;;;;;;;;;;5085814;28;20586;-61
2023/12/29 07:03:06;;;;;;;;;;;;;;;;;;5091323;28;19951;-61
2023/12/29 07:05:32;;;;;;;;;;;;;;;;;;5089108;28;19920;-62
2023/12/29 07:07:58;;;;;;;;;;;;;;;;;;5091735;28;20443;-62
2023/12/29 07:10:24;;;;;;;;;;;;;;;;;;5092589;28;20391;-61
2023/12/29 07:12:50;;;;;;;;;;;;;;;;;;5091960;28;19962;-61
2023/12/29 07:15:16;;;;;;;;;;;;;;;;;;5092144;28;20368;-62
2023/12/29 07:17:42;;;;;;;;;;;;;;;;;;5091555;28;20012;-61
2023/12/29 07:20:08;;;;;;;;;;;;;;;;;;5087487;28;21681;-61
2023/12/29 07:22:34;;;;;;;;;;;;;;;;;;5089593;28;19924;-61
2023/12/29 07:25:00;;;;;;;;;;;;;;;;;;5092560;28;19919;-61
2023/12/29 07:27:26;;;;;;;;;;;;;;;;;;5082762;28;19920;-62
2023/12/29 07:29:52;;;;;;;;;;;;;;;;;;5092108;28;19923;-62
2023/12/29 07:32:18;;;;;;;;;;;;;;;;;;5085721;28;19920;-62
2023/12/29 07:34:44;;;;;;;;;;;;;;;;;;5085751;28;19942;-61
2023/12/29 07:37:10;;;;;;;;;;;;;;;;;;5087801;28;19930;-61
2023/12/29 07:39:36;;;;;;;;;;;;;;;;;;5091229;28;20051;-61
2023/12/29 07:42:02;;;;;;;;;;;;;;;;;;5089478;28;20279;-62
2023/12/29 07:44:28;;;;;;;;;;;;;;;;;;5089675;28;19923;-62
2023/12/29 07:46:54;;;;;;;;;;;;;;;;;;5086855;28;20379;-61
2023/12/29 07:49:21;;;;;;;;;;;;;;;;;;5083535;28;19959;-62
2023/12/29 07:51:46;;;;;;;;;;;;;;;;;;5086513;28;19909;-62
2023/12/29 07:54:12;;;;;;;;;;;;;;;;;;5085304;28;20393;-62
2023/12/29 07:56:38;;;;;;;;;;;;;;;;;;5090249;28;19912;-62
2023/12/29 07:59:04;;;;;;;;;;;;;;;;;;5090838;28;19912;-62
2023/12/29 08:01:30;;;;;;;;;;;;;;;;;;5088976;28;19985;-62
2023/12/29 08:03:56;;;;;;;;;;;;;;;;;;5091076;28;19909;-62
2023/12/29 08:06:22;;;;;;;;;;;;;;;;;;5089608;28;19920;-62
2023/12/29 08:08:48;;;;;;;;;;;;;;;;;;5085889;28;19960;-62
2023/12/29 08:11:15;;;;;;;;;;;;;;;;;;5087166;28;19912;-62
2023/12/29 08:13:41;;;;;;;;;;;;;;;;;;5088913;28;19945;-63
2023/12/29 08:16:08;;;;;;;;;;;;;;;;;;5085182;28;20010;-62
2023/12/29 08:18:34;;;;;;;;;;;;;;;;;;5087850;28;19924;-62
2023/12/29 08:21:00;;;;;;;;;;;;;;;;;;5087556;28;19935;-62
2023/12/29 08:23:26;;;;;;;;;;;;;;;;;;5087991;28;20360;-62
2023/12/29 08:25:52;;;;;;;;;;;;;;;;;;5090915;28;19930;-63
2023/12/29 08:28:18;;;;;;;;;;;;;;;;;;5085421;28;19924;-62
2023/12/29 08:30:45;;;;;;;;;;;;;;;;;;5091187;28;19980;-62
2023/12/29 08:33:12;;;;;;;;;;;;;;;;;;5088904;28;19968;-62
2023/12/29 08:35:38;;;;;;;;;;;;;;;;;;5090915;28;19957;-62
2023/12/29 08:38:04;;;;;;;;;;;;;;;;;;5089040;28;19912;-62
2023/12/29 08:40:30;;;;;;;;;;;;;;;;;;5090823;28;20422;-62
2023/12/29 08:42:56;;;;;;;;;;;;;;;;;;5085073;28;19961;-62
2023/12/29 08:45:22;;;;;;;;;;;;;;;;;;5082470;28;19957;-62
2023/12/29 08:47:47;;;;;;;;;;;;;;;;;;5086183;28;21720;-62
2023/12/29 08:50:14;;;;;;;;;;;;;;;;;;5089225;28;19919;-62
2023/12/29 08:52:40;;;;;;;;;;;;;;;;;;5084143;28;19942;-62
2023/12/29 08:55:06;;;;;;;;;;;;;;;;;;5083654;28;19916;-62
2023/12/29 08:57:32;;;;;;;;;;;;;;;;;;5083692;28;19973;-62
2023/12/29 08:59:58;;;;;;;;;;;;;;;;;;5087687;28;19957;-61
2023/12/29 09:02:24;;;;;;;;;;;;;;;;;;5083075;28;19947;-65
2023/12/29 09:04:50;;;;;;;;;;;;;;;;;;5085207;28;19967;-65
2023/12/29 09:07:16;;;;;;;;;;;;;;;;;;5085325;28;19956;-65
2023/12/29 09:09:42;;;;;;;;;;;;;;;;;;5087176;28;20287;-65
2023/12/29 09:12:08;;;;;;;;;;;;;;;;;;5082902;28;19912;-65
2023/12/29 09:14:34;;;;;;;;;;;;;;;;;;5089543;28;19920;-65
2023/12/29 09:17:00;;;;;;;;;;;;;;;;;;5088474;28;20034;-65
2023/12/29 09:19:26;;;;;;;;;;;;;;;;;;5088519;28;20501;-64
2023/12/29 09:21:52;;;;;;;;;;;;;;;;;;5085564;28;20382;-65
2023/12/29 09:24:18;;;;;;;;;;;;;;;;;;5087038;28;19939;-64
2023/12/29 09:26:44;;;;;;;;;;;;;;;;;;5087576;28;19918;-66
2023/12/29 09:29:10;;;;;;;;;;;;;;;;;;5086182;28;20348;-65
2023/12/29 09:31:36;;;;;;;;;;;;;;;;;;5091509;28;19946;-66
2023/12/29 09:34:02;;;;;;;;;;;;;;;;;;5091075;28;20006;-66
2023/12/29 09:36:27;;;;;;;;;;;;;;;;;;5080569;28;20357;-65
2023/12/29 09:38:53;;;;;;;;;;;;;;;;;;5080353;28;19999;-64
2023/12/29 09:41:19;;;;;;;;;;;;;;;;;;5078995;28;19923;-65
2023/12/29 09:43:45;;;;;;;;;;;;;;;;;;5085821;28;19956;-64
2023/12/29 09:46:11;;;;;;;;;;;;;;;;;;5088351;28;19912;-65
2023/12/29 09:48:37;;;;;;;;;;;;;;;;;;5088237;28;20390;-65
2023/12/29 09:51:03;;;;;;;;;;;;;;;;;;5089025;28;20295;-64
2023/12/29 09:53:29;;;;;;;;;;;;;;;;;;5081084;28;19916;-66
2023/12/29 09:55:55;;;;;;;;;;;;;;;;;;5088727;28;20002;-66
2023/12/29 09:58:21;;;;;;;;;;;;;;;;;;5085494;28;19965;-65
2023/12/29 10:00:47;;;;;;;;;;;;;;;;;;5081741;28;19947;-65
2023/12/29 10:03:13;;;;;;;;;;;;;;;;;;5086946;28;19912;-65
2023/12/29 10:05:38;;;;;;;;;;;;;;;;;;5085678;28;20397;-65
2023/12/29 10:08:05;;;;;;;;;;;;;;;;;;5088410;28;19959;-65
2023/12/29 10:10:31;;;;;;;;;;;;;;;;;;5088504;28;20030;-65
2023/12/29 10:12:57;;;;;;;;;;;;;;;;;;5088482;28;19947;-62
2023/12/29 10:15:23;;;;;;;;;;;;;;;;;;5086191;28;19916;-62
2023/12/29 10:17:50;;;;;;;;;;;;;;;;;;5086220;28;20243;-62
2023/12/29 10:20:17;;;;;;;;;;;;;;;;;;5089151;28;19965;-62
2023/12/29 10:22:43;;;;;;;;;;;;;;;;;;5090293;28;19916;-62
2023/12/29 10:25:09;;;;;;;;;;;;;;;;;;5080499;28;19921;-62
2023/12/29 10:27:35;;;;;;;;;;;;;;;;;;5086470;28;20418;-62
2023/12/29 10:30:01;;;;;;;;;;;;;;;;;;5084695;28;19912;-62
2023/12/29 10:32:29;;;;;;;;;;;;;;;;;;5085075;28;19920;-62
2023/12/29 10:34:55;;;;;;;;;;;;;;;;;;5083454;28;19920;-63
2023/12/29 10:37:21;;;;;;;;;;;;;;;;;;5090011;28;19922;-63
2023/12/29 10:39:47;;;;;;;;;;;;;;;;;;5087353;28;19912;-62
2023/12/29 10:42:13;;;;;;;;;;;;;;;;;;5089604;28;19967;-63
2023/12/29 10:44:39;;;;;;;;;;;;;;;;;;5085938;28;20781;-62
2023/12/29 10:47:05;;;;;;;;;;;;;;;;;;5088205;28;19966;-62
2023/12/29 10:49:31;;;;;;;;;;;;;;;;;;5086378;28;19951;-62
2023/12/29 10:51:57;;;;;;;;;;;;;;;;;;5082472;28;20329;-63
2023/12/29 10:54:23;;;;;;;;;;;;;;;;;;5085313;28;19919;-62
2023/12/29 10:56:49;;;;;;;;;;;;;;;;;;5086857;28;19912;-62
2023/12/29 10:59:15;;;;;;;;;;;;;;;;;;5080706;28;19923;-63
2023/12/29 11:01:41;;;;;;;;;;;;;;;;;;5085386;28;20383;-62
2023/12/29 11:04:09;;;;;;;;;;;;;;;;;;5085208;28;20000;-62
2023/12/29 11:06:35;;;;;;;;;;;;;;;;;;5089581;28;19923;-62
2023/12/29 11:09:01;;;;;;;;;;;;;;;;;;5089361;28;19916;-62
2023/12/29 11:11:26;;;;;;;;;;;;;;;;;;5090606;28;20395;-63
2023/12/29 11:13:53;;;;;;;;;;;;;;;;;;5090765;28;19959;-62
2023/12/29 11:16:21;;;;;;;;;;;;;;;;;;5088348;28;19912;-62
2023/12/29 11:18:47;;;;;;;;;;;;;;;;;;5089641;28;19916;-62
2023/12/29 11:21:13;;;;;;;;;;;;;;;;;;5091246;28;20010;-65
2023/12/29 11:23:39;;;;;;;;;;;;;;;;;;5086834;28;19912;-65
2023/12/29 11:26:05;;;;;;;;;;;;;;;;;;5085076;28;19962;-65
2023/12/29 11:28:31;;;;;;;;;;;;;;;;;;5081614;28;19920;-65
2023/12/29 11:30:57;;;;;;;;;;;;;;;;;;5083527;28;19968;-64
2023/12/29 11:33:23;;;;;;;;;;;;;;;;;;5088204;28;19916;-65
2023/12/29 11:35:49;;;;;;;;;;;;;;;;;;5083657;28;20345;-65
2023/12/29 11:38:16;;;;;;;;;;;;;;;;;;5090491;28;19927;-65
2023/12/29 11:40:42;;;;;;;;;;;;;;;;;;5090943;28;19921;-64
2023/12/29 11:43:08;;;;;;;;;;;;;;;;;;5090367;28;20002;-64
2023/12/29 11:45:35;;;;;;;;;;;;;;;;;;5082433;28;20029;-64
2023/12/29 11:48:02;;;;;;;;;;;;;;;;;;5085789;28;20403;-64
2023/12/29 11:50:29;;;;;;;;;;;;;;;;;;5091292;28;19912;-64
2023/12/29 11:52:55;;;;;;;;;;;;;;;;;;5091187;28;20024;-65
2023/12/29 11:55:21;;;;;;;;;;;;;;;;;;5079977;28;19955;-63
2023/12/29 11:57:46;;;;;;;;;;;;;;;;;;5091701;28;19955;-64
2023/12/29 12:00:12;;;;;;;;;;;;;;;;;;5090942;28;19911;-64
2023/12/29 12:02:38;;;;;;;;;;;;;;;;;;5091247;28;19922;-64
2023/12/29 12:05:04;;;;;;;;;;;;;;;;;;5091283;28;19908;-64
2023/12/29 12:07:31;;;;;;;;;;;;;;;;;;5090771;28;19912;-64
2023/12/29 12:09:57;;;;;;;;;;;;;;;;;;5091099;28;19915;-64
2023/12/29 12:12:22;;;;;;;;;;;;;;;;;;5090011;28;19951;-64
2023/12/29 12:14:49;;;;;;;;;;;;;;;;;;5078881;28;20287;-64
2023/12/29 12:17:14;;;;;;;;;;;;;;;;;;5084221;28;20014;-64
2023/12/29 12:19:40;;;;;;;;;;;;;;;;;;5085999;28;19996;-64
2023/12/29 12:22:08;;;;;;;;;;;;;;;;;;5083744;28;19918;-64
2023/12/29 12:24:35;;;;;;;;;;;;;;;;;;5090411;28;19915;-64
2023/12/29 12:27:02;;;;;;;;;;;;;;;;;;5091754;28;20291;-64
2023/12/29 12:29:28;;;;;;;;;;;;;;;;;;5091162;28;19912;-64
2023/12/29 12:31:54;;;;;;;;;;;;;;;;;;5091751;28;20419;-61
2023/12/29 12:34:19;;;;;;;;;;;;;;;;;;5085850;28;19992;-61
2023/12/29 12:36:45;;;;;;;;;;;;;;;;;;5080051;28;19965;-61
2023/12/29 12:39:11;;;;;;;;;;;;;;;;;;5091421;28;19908;-61
2023/12/29 12:41:37;;;;;;;;;;;;;;;;;;5091579;28;19908;-61
2023/12/29 12:44:03;;;;;;;;;;;;;;;;;;5091322;28;19915;-61
2023/12/29 12:46:29;;;;;;;;;;;;;;;;;;5091507;28;20498;-61
2023/12/29 12:48:55;;;;;;;;;;;;;;;;;;5077911;28;20691;-61
2023/12/29 12:51:21;;;;;;;;;;;;;;;;;;5090585;28;19955;-61
2023/12/29 12:53:47;;;;;;;;;;;;;;;;;;5086505;28;19916;-61
2023/12/29 12:56:13;;;;;;;;;;;;;;;;;;5089294;28;20287;-61
2023/12/29 12:58:39;;;;;;;;;;;;;;;;;;5080368;28;19912;-61
2023/12/29 13:01:05;;;;;;;;;;;;;;;;;;5091098;28;20016;-61
2023/12/29 13:03:31;;;;;;;;;;;;;;;;;;5085475;28;20386;-61
2023/12/29 13:05:58;;;;;;;;;;;;;;;;;;5094335;28;19908;-61
2023/12/29 13:08:24;;;;;;;;;;;;;;;;;;5093317;28;19912;-61
2023/12/29 13:10:50;;;;;;;;;;;;;;;;;;5095161;28;19912;-61
2023/12/29 13:13:18;;;;;;;;;;;;;;;;;;5092666;28;19918;-61
2023/12/29 13:15:44;;;;;;;;;;;;;;;;;;5095164;28;19973;-61
2023/12/29 13:18:10;;;;;;;;;;;;;;;;;;5095098;28;19912;-61
2023/12/29 13:20:36;;;;;;;;;;;;;;;;;;5093258;28;19969;-63
2023/12/29 13:23:02;;;;;;;;;;;;;;;;;;5092769;28;19958;-61
2023/12/29 13:25:28;;;;;;;;;;;;;;;;;;5082535;28;19981;-61
2023/12/29 13:27:54;;;;;;;;;;;;;;;;;;5082801;28;19941;-61
2023/12/29 13:30:20;;;;;;;;;;;;;;;;;;5089567;28;19944;-61
2023/12/29 13:32:46;;;;;;;;;;;;;;;;;;5092941;28;19974;-61
2023/12/29 13:35:12;;;;;;;;;;;;;;;;;;5092685;28;19920;-61
2023/12/29 13:37:39;;;;;;;;;;;;;;;;;;5089516;28;19955;-61
2023/12/29 13:40:05;;;;;;;;;;;;;;;;;;5093527;28;20006;-61
2023/12/29 13:42:31;;;;;;;;;;;;;;;;;;5086476;28;20007;-62
2023/12/29 13:44:57;;;;;;;;;;;;;;;;;;5081421;28;19940;-61
2023/12/29 13:47:23;;;;;;;;;;;;;;;;;;5088746;28;19916;-62
2023/12/29 13:49:49;;;;;;;;;;;;;;;;;;5084181;28;19951;-62
2023/12/29 13:52:16;;;;;;;;;;;;;;;;;;5092881;28;19970;-61
2023/12/29 13:54:44;;;;;;;;;;;;;;;;;;5088181;28;20363;-61
2023/12/29 13:57:10;;;;;;;;;;;;;;;;;;5092570;28;19956;-61
2023/12/29 13:59:37;;;;;;;;;;;;;;;;;;5093504;28;20372;-61
2023/12/29 14:02:03;;;;;;;;;;;;;;;;;;5093804;28;19999;-62
2023/12/29 14:04:29;;;;;;;;;;;;;;;;;;5092551;28;19912;-62
2023/12/29 14:06:55;;;;;;;;;;;;;;;;;;5092963;28;19927;-62
2023/12/29 14:09:21;;;;;;;;;;;;;;;;;;5090234;28;19927;-62
2023/12/29 14:11:47;;;;;;;;;;;;;;;;;;5084689;28;19948;-66
2023/12/29 14:14:13;;;;;;;;;;;;;;;;;;5086375;28;20020;-61
2023/12/29 14:16:39;;;;;;;;;;;;;;;;;;5091789;28;19921;-62
2023/12/29 14:19:05;;;;;;;;;;;;;;;;;;5085494;28;19940;-62
2023/12/29 14:21:31;;;;;;;;;;;;;;;;;;5091311;28;20347;-62
2023/12/29 14:23:57;;;;;;;;;;;;;;;;;;5090199;28;19944;-62
2023/12/29 14:26:23;;;;;;;;;;;;;;;;;;5086000;28;19912;-61
2023/12/29 14:28:49;;;;;;;;;;;;;;;;;;5091894;28;20011;-61
2023/12/29 14:31:14;;;;;;;;;;;;;;;;;;5091454;28;19918;-61
2023/12/29 14:33:40;;;;;;;;;;;;;;;;;;5087579;28;19977;-61
2023/12/29 14:36:06;;;;;;;;;;;;;;;;;;5090095;28;20444;-62
2023/12/29 14:38:32;;;;;;;;;;;;;;;;;;5089719;28;19916;-61
2023/12/29 14:40:58;;;;;;;;;;;;;;;;;;5079690;28;20229;-62
2023/12/29 14:43:24;;;;;;;;;;;;;;;;;;5078833;28;20079;-62
2023/12/29 14:45:50;;;;;;;;;;;;;;;;;;5093230;28;19908;-62
2023/12/29 14:48:16;;;;;;;;;;;;;;;;;;5082264;28;19912;-61
2023/12/29 14:50:45;;;;;;;;;;;;;;;;;;5089350;28;20304;-64
2023/12/29 14:53:11;;;;;;;;;;;;;;;;;;5091523;28;19916;-64
2023/12/29 14:55:36;;;;;;;;;;;;;;;;;;5086634;28;19966;-64
2023/12/29 14:58:02;;;;;;;;;;;;;;;;;;5083610;28;20030;-64
2023/12/29 15:00:28;;;;;;;;;;;;;;;;;;5084505;28;19920;-64
2023/12/29 15:02:54;;;;;;;;;;;;;;;;;;5087951;28;20406;-64
2023/12/29 15:05:20;;;;;;;;;;;;;;;;;;5092426;28;20002;-64
2023/12/29 15:07:46;;;;;;;;;;;;;;;;;;5090414;28;20334;-64
2023/12/29 15:10:12;;;;;;;;;;;;;;;;;;5089048;28;20346;-63
2023/12/29 15:12:40;;;;;;;;;;;;;;;;;;5087456;28;20387;-64
2023/12/29 15:15:06;;;;;;;;;;;;;;;;;;5087242;28;19912;-63
2023/12/29 15:17:32;;;;;;;;;;;;;;;;;;5092278;28;19982;-64
2023/12/29 15:19:58;;;;;;;;;;;;;;;;;;5091402;28;20693;-64
2023/12/29 15:22:26;;;;;;;;;;;;;;;;;;5093082;28;19955;-64
2023/12/29 15:24:52;;;;;;;;;;;;;;;;;;5092205;28;19912;-63
2023/12/29 15:27:18;;;;;;;;;;;;;;;;;;5091966;28;20376;-64
2023/12/29 15:29:44;;;;;;;;;;;;;;;;;;5092472;28;20012;-64
2023/12/29 15:32:11;;;;;;;;;;;;;;;;;;5091557;28;19919;-64
2023/12/29 15:34:37;;;;;;;;;;;;;;;;;;5092569;28;19916;-63
2023/12/29 15:37:03;;;;;;;;;;;;;;;;;;5092427;28;19912;-63
2023/12/29 15:39:29;;;;;;;;;;;;;;;;;;5091945;28;19912;-64
2023/12/29 15:41:55;;;;;;;;;;;;;;;;;;5091803;28;19916;-64
2023/12/29 15:44:21;;;;;;;;;;;;;;;;;;5087503;28;20383;-63
2023/12/29 15:46:47;;;;;;;;;;;;;;;;;;5089954;28;19935;-63
2023/12/29 15:49:15;;;;;;;;;;;;;;;;;;5089541;28;20257;-63
2023/12/29 15:51:40;;;;;;;;;;;;;;;;;;5088017;28;19923;-64
2023/12/29 15:54:06;;;;;;;;;;;;;;;;;;5091653;28;19967;-64
2023/12/29 15:56:32;;;;;;;;;;;;;;;;;;5092224;28;19919;-64
2023/12/29 15:58:58;;;;;;;;;;;;;;;;;;5091521;28;19908;-63
2023/12/29 16:01:26;;;;;;;;;;;;;;;;;;5092003;28;20435;-60
2023/12/29 16:03:52;;;;;;;;;;;;;;;;;;5091327;28;19938;-60
2023/12/29 16:06:18;;;;;;;;;;;;;;;;;;5091242;28;19959;-60
2023/12/29 16:08:44;;;;;;;;;;;;;;;;;;5091541;28;19960;-61
2023/12/29 16:11:10;;;;;;;;;;;;;;;;;;5084701;28;19908;-60
2023/12/29 16:13:36;;;;;;;;;;;;;;;;;;5086067;28;20485;-61
2023/12/29 16:16:02;;;;;;;;;;;;;;;;;;5085011;28;20674;-60
2023/12/29 16:18:28;;;;;;;;;;;;;;;;;;5085825;28;19916;-60
2023/12/29 16:20:54;;;;;;;;;;;;;;;;;;5090378;28;19908;-60
2023/12/29 16:23:20;;;;;;;;;;;;;;;;;;5090908;28;19927;-60
2023/12/29 16:25:45;;;;;;;;;;;;;;;;;;5086927;28;20296;-60
2023/12/29 16:28:11;;;;;;;;;;;;;;;;;;5090076;28;19952;-60
2023/12/29 16:30:37;;;;;;;;;;;;;;;;;;5082209;28;19920;-60
2023/12/29 16:33:05;;;;;;;;;;;;;;;;;;5086469;28;19920;-60
2023/12/29 16:35:31;;;;;;;;;;;;;;;;;;5089295;28;19938;-61
2023/12/29 16:37:57;;;;;;;;;;;;;;;;;;5092046;28;19991;-61